createdAt,value
2016-12-22T00:00:49.476Z,69.98
2016-12-22T00:01:49.486Z,69.79
2016-12-22T00:02:49.498Z,69.79
2016-12-22T00:03:49.512Z,69.41
2016-12-22T00:04:49.837Z,69.6
2016-12-22T00:05:49.547Z,69.7
2016-12-22T00:06:49.866Z,69.41
2016-12-22T00:07:49.876Z,69.32
2016-12-22T00:08:49.563Z,68.94
2016-12-22T00:09:49.892Z,68.84
2016-12-22T00:10:49.906Z,69.22
2016-12-22T00:11:49.601Z,69.13
2016-12-22T00:12:49.618Z,68.94
2016-12-22T00:13:49.941Z,69.32
2016-12-22T00:14:49.636Z,69.51
2016-12-22T00:15:49.647Z,69.13
2016-12-22T00:16:49.976Z,69.32
2016-12-22T00:17:49.669Z,69.03
2016-12-22T00:18:49.683Z,69.22
2016-12-22T00:19:49.692Z,69.51
2016-12-22T00:20:49.704Z,69.6
2016-12-22T00:21:49.717Z,69.6
2016-12-22T00:22:49.729Z,69.32
2016-12-22T00:23:50.054Z,69.6
2016-12-22T00:24:50.069Z,69.6
2016-12-22T00:25:50.085Z,69.41
2016-12-22T00:26:49.774Z,68.94
2016-12-22T00:27:50.100Z,68.37
2016-12-22T00:28:50.113Z,68.27
2016-12-22T00:29:50.124Z,69.03
2016-12-22T00:30:50.135Z,69.22
2016-12-22T00:31:49.832Z,68.94
2016-12-22T00:32:49.846Z,69.22
2016-12-22T00:33:50.186Z,69.13
2016-12-22T00:34:49.884Z,69.22
2016-12-22T00:35:49.875Z,69.79
2016-12-22T00:36:49.888Z,70.14
2016-12-22T00:37:49.900Z,70.61
2016-12-22T00:38:49.921Z,70.89
2016-12-22T00:39:50.239Z,70.61
2016-12-22T00:40:50.255Z,70.51
2016-12-22T00:41:49.950Z,70.23
2016-12-22T00:42:50.271Z,70.51
2016-12-22T00:43:50.285Z,70.04
2016-12-22T00:44:49.982Z,70.07
2016-12-22T00:45:49.993Z,69.51
2016-12-22T00:46:50.005Z,69.76
2016-12-22T00:47:50.014Z,70.23
2016-12-22T00:48:50.339Z,70.23
2016-12-22T00:49:50.354Z,69.85
2016-12-22T00:50:50.052Z,69.98
2016-12-22T00:51:50.374Z,69.6
2016-12-22T00:52:50.388Z,69.41
2016-12-22T00:53:50.398Z,69.51
2016-12-22T00:54:50.101Z,69.51
2016-12-22T00:55:50.107Z,69.32
2016-12-22T00:56:50.433Z,69.41
2016-12-22T00:57:50.444Z,69.41
2016-12-22T00:58:50.455Z,69.6
2016-12-22T00:59:50.467Z,69.6
2016-12-22T01:00:50.478Z,69.7
2016-12-22T01:01:50.490Z,69.32
2016-12-22T01:02:50.185Z,69.6
2016-12-22T01:03:50.196Z,69.6
2016-12-22T01:04:50.213Z,69.79
2016-12-22T01:05:50.543Z,69.51
2016-12-22T01:06:50.548Z,69.79
2016-12-22T01:07:50.559Z,69.6
2016-12-22T01:08:50.259Z,69.32
2016-12-22T01:09:50.264Z,68.94
2016-12-22T01:10:50.277Z,69.13
2016-12-22T01:11:50.295Z,69.13
2016-12-22T01:12:50.302Z,69.13
2016-12-22T01:13:50.310Z,68.94
2016-12-22T01:14:50.328Z,69.22
2016-12-22T01:15:50.332Z,68.94
2016-12-22T01:16:50.675Z,68.65
2016-12-22T01:17:50.368Z,68.46
2016-12-22T01:18:50.682Z,68.94
2016-12-22T01:19:50.381Z,69.22
2016-12-22T01:20:50.389Z,69.13
2016-12-22T01:21:50.402Z,69.32
2016-12-22T01:22:50.416Z,69.57
2016-12-22T01:23:50.739Z,69.51
2016-12-22T01:24:50.434Z,69.32
2016-12-22T01:25:50.767Z,69.41
2016-12-22T01:26:50.458Z,69.13
2016-12-22T01:27:50.471Z,68.94
2016-12-22T01:28:50.478Z,69.03
2016-12-22T01:29:50.807Z,68.94
2016-12-22T01:30:50.503Z,68.84
2016-12-22T01:31:50.517Z,69.03
2016-12-22T01:32:50.526Z,69.09
2016-12-22T01:33:50.864Z,69.13
2016-12-22T01:34:50.868Z,69
2016-12-22T01:35:50.557Z,69.13
2016-12-22T01:36:50.571Z,68.71
2016-12-22T01:37:50.898Z,68.33
2016-12-22T01:38:50.908Z,68.81
2016-12-22T01:39:50.603Z,69.19
2016-12-22T01:40:50.618Z,69
2016-12-22T01:41:50.627Z,68.43
2016-12-22T01:42:50.953Z,68.24
2016-12-22T01:43:50.650Z,69
2016-12-22T01:44:50.678Z,69.57
2016-12-22T01:45:50.690Z,69.76
2016-12-22T01:46:50.998Z,70.14
2016-12-22T01:47:50.694Z,70.14
2016-12-22T01:48:51.022Z,70.04
2016-12-22T01:49:50.720Z,70.23
2016-12-22T01:50:51.043Z,69.57
2016-12-22T01:51:51.060Z,69.47
2016-12-22T01:52:50.756Z,69.38
2016-12-22T01:53:51.078Z,69.19
2016-12-22T01:54:51.088Z,69.51
2016-12-22T01:55:51.097Z,69.51
2016-12-22T01:56:50.796Z,68.84
2016-12-22T01:57:51.122Z,69.22
2016-12-22T01:58:51.135Z,69.03
2016-12-22T01:59:50.851Z,68.18
2016-12-22T02:00:50.843Z,68.27
2016-12-22T02:01:51.172Z,68.27
2016-12-22T02:02:50.861Z,68.81
2016-12-22T02:03:50.875Z,69.09
2016-12-22T02:04:51.201Z,69.19
2016-12-22T02:05:51.215Z,69.22
2016-12-22T02:06:50.907Z,69.79
2016-12-22T02:07:50.918Z,69.22
2016-12-22T02:08:50.930Z,69.03
2016-12-22T02:09:51.260Z,69.32
2016-12-22T02:10:51.268Z,69.03
2016-12-22T02:11:51.279Z,68.37
2016-12-22T02:12:51.290Z,68.27
2016-12-22T02:13:51.303Z,68.84
2016-12-22T02:14:50.998Z,69.09
2016-12-22T02:15:51.327Z,69.7
2016-12-22T02:16:51.020Z,69.03
2016-12-22T02:17:51.347Z,68.75
2016-12-22T02:18:51.044Z,68.94
2016-12-22T02:19:51.051Z,69.13
2016-12-22T02:20:51.381Z,69.32
2016-12-22T02:21:51.081Z,69.41
2016-12-22T02:22:51.089Z,69.41
2016-12-22T02:23:51.416Z,69.32
2016-12-22T02:24:51.109Z,68.84
2016-12-22T02:25:51.124Z,68.46
2016-12-22T02:26:51.450Z,68.27
2016-12-22T02:27:51.482Z,68.27
2016-12-22T02:28:51.175Z,68.65
2016-12-22T02:29:51.484Z,68.65
2016-12-22T02:30:51.493Z,68.27
2016-12-22T02:31:51.191Z,68.18
2016-12-22T02:32:51.515Z,67.43
2016-12-22T02:33:51.528Z,67.8
2016-12-22T02:34:51.229Z,67.99
2016-12-22T02:35:51.550Z,68.05
2016-12-22T02:36:51.562Z,67.86
2016-12-22T02:37:51.576Z,67.61
2016-12-22T02:38:51.268Z,67.86
2016-12-22T02:39:51.596Z,68.05
2016-12-22T02:40:51.607Z,68.33
2016-12-22T02:41:51.623Z,68.33
2016-12-22T02:42:51.632Z,68.15
2016-12-22T02:43:51.645Z,68.05
2016-12-22T02:44:51.336Z,68.24
2016-12-22T02:45:51.349Z,68.15
2016-12-22T02:46:51.675Z,68.24
2016-12-22T02:47:51.372Z,68.05
2016-12-22T02:48:51.695Z,68.43
2016-12-22T02:49:51.394Z,68.24
2016-12-22T02:50:51.722Z,68.33
2016-12-22T02:51:51.736Z,68.43
2016-12-22T02:52:51.478Z,68.33
2016-12-22T02:53:51.753Z,68.24
2016-12-22T02:54:51.764Z,67.24
2016-12-22T02:55:51.458Z,67.77
2016-12-22T02:56:51.787Z,68.05
2016-12-22T02:57:51.799Z,68.43
2016-12-22T02:58:51.497Z,68.05
2016-12-22T02:59:51.505Z,67.77
2016-12-22T03:00:51.515Z,67.86
2016-12-22T03:01:51.528Z,68.33
2016-12-22T03:02:51.866Z,68.43
2016-12-22T03:03:51.561Z,68.52
2016-12-22T03:04:51.561Z,67.86
2016-12-22T03:05:51.890Z,68.33
2016-12-22T03:06:51.899Z,69
2016-12-22T03:07:51.912Z,69
2016-12-22T03:08:51.606Z,69.57
2016-12-22T03:09:51.935Z,69.38
2016-12-22T03:10:51.945Z,69.85
2016-12-22T03:11:51.956Z,69.76
2016-12-22T03:12:51.651Z,70.7
2016-12-22T03:13:51.977Z,70.42
2016-12-22T03:14:51.993Z,69.95
2016-12-22T03:15:52.003Z,70.32
2016-12-22T03:16:51.700Z,69.85
2016-12-22T03:17:52.021Z,69.76
2016-12-22T03:18:51.717Z,69.38
2016-12-22T03:19:51.729Z,69.66
2016-12-22T03:20:51.740Z,70.04
2016-12-22T03:21:51.751Z,70.7
2016-12-22T03:22:51.761Z,69.76
2016-12-22T03:23:51.772Z,70.04
2016-12-22T03:24:51.784Z,70.32
2016-12-22T03:25:52.109Z,70.14
2016-12-22T03:26:51.806Z,69.19
2016-12-22T03:27:51.869Z,69
2016-12-22T03:28:52.141Z,69
2016-12-22T03:29:51.839Z,69.28
2016-12-22T03:30:51.850Z,69.19
2016-12-22T03:31:52.180Z,69.09
2016-12-22T03:32:51.874Z,69.38
2016-12-22T03:33:52.206Z,69.57
2016-12-22T03:34:51.980Z,69.47
2016-12-22T03:35:51.906Z,69.76
2016-12-22T03:36:52.232Z,69.76
2016-12-22T03:37:51.928Z,69.76
2016-12-22T03:38:51.938Z,69
2016-12-22T03:39:51.949Z,69.28
2016-12-22T03:40:51.958Z,68.9
2016-12-22T03:41:51.971Z,68.62
2016-12-22T03:42:52.299Z,68.05
2016-12-22T03:43:52.309Z,68.33
2016-12-22T03:44:52.004Z,67.39
2016-12-22T03:45:52.350Z,67.3
2016-12-22T03:46:52.045Z,67.39
2016-12-22T03:47:52.353Z,67.2
2016-12-22T03:48:52.374Z,67.01
2016-12-22T03:49:52.059Z,67.49
2016-12-22T03:50:52.383Z,67.3
2016-12-22T03:51:52.398Z,67.58
2016-12-22T03:52:52.097Z,67.3
2016-12-22T03:53:52.423Z,67.3
2016-12-22T03:54:52.115Z,68.05
2016-12-22T03:55:52.123Z,67.96
2016-12-22T03:56:52.452Z,67.39
2016-12-22T03:57:52.149Z,67.2
2016-12-22T03:58:52.158Z,67.43
2016-12-22T03:59:52.178Z,67.01
2016-12-22T04:00:52.528Z,67.33
2016-12-22T04:01:52.193Z,67.3
2016-12-22T04:02:52.203Z,67.01
2016-12-22T04:03:52.531Z,67.2
2016-12-22T04:04:52.542Z,67.11
2016-12-22T04:05:52.235Z,67.11
2016-12-22T04:06:52.248Z,67.3
2016-12-22T04:07:52.259Z,67.3
2016-12-22T04:08:52.589Z,66.73
2016-12-22T04:09:52.283Z,67.3
2016-12-22T04:10:52.291Z,66.73
2016-12-22T04:11:52.620Z,67.2
2016-12-22T04:12:52.631Z,67.2
2016-12-22T04:13:52.326Z,66.82
2016-12-22T04:14:52.341Z,67.01
2016-12-22T04:15:52.347Z,67.3
2016-12-22T04:16:52.674Z,67.49
2016-12-22T04:17:52.684Z,67.49
2016-12-22T04:18:52.385Z,67.77
2016-12-22T04:19:52.395Z,67.3
2016-12-22T04:20:52.736Z,67.3
2016-12-22T04:21:52.731Z,67.01
2016-12-22T04:22:52.432Z,67.11
2016-12-22T04:23:52.754Z,67.49
2016-12-22T04:24:52.765Z,67.3
2016-12-22T04:25:52.775Z,67.11
2016-12-22T04:26:52.471Z,67.49
2016-12-22T04:27:52.801Z,67.58
2016-12-22T04:28:52.496Z,67.86
2016-12-22T04:29:52.503Z,67.96
2016-12-22T04:30:52.514Z,66.73
2016-12-22T04:31:52.525Z,67.49
2016-12-22T04:32:52.538Z,67.77
2016-12-22T04:33:52.547Z,68.15
2016-12-22T04:34:52.875Z,68.43
2016-12-22T04:35:52.568Z,68.15
2016-12-22T04:36:52.579Z,68.15
2016-12-22T04:37:52.907Z,68.15
2016-12-22T04:38:52.601Z,67.58
2016-12-22T04:39:52.612Z,67.3
2016-12-22T04:40:52.629Z,66.92
2016-12-22T04:41:52.949Z,66.73
2016-12-22T04:42:52.964Z,67.49
2016-12-22T04:43:52.657Z,67.11
2016-12-22T04:44:52.982Z,67.2
2016-12-22T04:45:52.993Z,67.01
2016-12-22T04:46:52.691Z,67.01
2016-12-22T04:47:53.017Z,67.2
2016-12-22T04:48:52.711Z,67.2
2016-12-22T04:49:53.036Z,67.3
2016-12-22T04:50:52.733Z,67.39
2016-12-22T04:51:52.741Z,67.58
2016-12-22T04:52:53.092Z,67.2
2016-12-22T04:53:53.079Z,67.39
2016-12-22T04:54:52.777Z,67.68
2016-12-22T04:55:53.103Z,67.58
2016-12-22T04:56:53.113Z,67.58
2016-12-22T04:57:52.810Z,67.49
2016-12-22T04:58:53.138Z,67.3
2016-12-22T04:59:52.829Z,67.49
2016-12-22T05:00:53.159Z,67.3
2016-12-22T05:01:52.851Z,66.92
2016-12-22T05:02:53.180Z,67.2
2016-12-22T05:03:52.872Z,67.39
2016-12-22T05:04:53.200Z,67.01
2016-12-22T05:05:52.904Z,67.11
2016-12-22T05:06:52.906Z,67.01
2016-12-22T05:07:53.232Z,67.3
2016-12-22T05:08:52.930Z,66.92
2016-12-22T05:09:52.940Z,65.97
2016-12-22T05:10:52.971Z,66.82
2016-12-22T05:11:53.276Z,67.11
2016-12-22T05:12:53.288Z,66.73
2016-12-22T05:13:53.303Z,66.63
2016-12-22T05:14:53.339Z,67.49
2016-12-22T05:15:53.005Z,67.01
2016-12-22T05:16:53.015Z,67.3
2016-12-22T05:17:53.354Z,67.64
2016-12-22T05:18:53.048Z,67.45
2016-12-22T05:19:53.360Z,68.33
2016-12-22T05:20:53.057Z,68.12
2016-12-22T05:21:53.069Z,68.4
2016-12-22T05:22:53.397Z,69.15
2016-12-22T05:23:53.405Z,69.34
2016-12-22T05:24:53.107Z,69.72
2016-12-22T05:25:53.113Z,69.34
2016-12-22T05:26:53.440Z,69.44
2016-12-22T05:27:53.134Z,69.15
2016-12-22T05:28:53.459Z,69.91
2016-12-22T05:29:53.472Z,69.15
2016-12-22T05:30:53.482Z,69.25
2016-12-22T05:31:53.179Z,69.34
2016-12-22T05:32:53.506Z,69.34
2016-12-22T05:33:53.513Z,69.25
2016-12-22T05:34:53.208Z,69.82
2016-12-22T05:35:53.536Z,69.91
2016-12-22T05:36:53.544Z,69.91
2016-12-22T05:37:53.240Z,70.1
2016-12-22T05:38:53.254Z,70.29
2016-12-22T05:39:53.268Z,69.53
2016-12-22T05:40:53.275Z,69.91
2016-12-22T05:41:53.609Z,69.72
2016-12-22T05:42:53.610Z,69.91
2016-12-22T05:43:53.619Z,69.15
2016-12-22T05:44:53.314Z,69.53
2016-12-22T05:45:53.325Z,69.34
2016-12-22T05:46:53.652Z,69.91
2016-12-22T05:47:53.345Z,69.44
2016-12-22T05:48:53.675Z,69.72
2016-12-22T05:49:53.366Z,69.91
2016-12-22T05:50:53.693Z,70.06
2016-12-22T05:51:53.387Z,69.82
2016-12-22T05:52:53.398Z,69.82
2016-12-22T05:53:53.410Z,69.25
2016-12-22T05:54:53.736Z,69.06
2016-12-22T05:55:53.430Z,69.15
2016-12-22T05:56:53.756Z,69.72
2016-12-22T05:57:53.453Z,69.34
2016-12-22T05:58:53.463Z,69.44
2016-12-22T05:59:53.804Z,68.96
2016-12-22T06:00:53.796Z,68.12
2016-12-22T06:01:53.807Z,68.02
2016-12-22T06:02:53.505Z,67.26
2016-12-22T06:03:53.830Z,67.07
2016-12-22T06:04:53.840Z,67.26
2016-12-22T06:05:53.540Z,67.36
2016-12-22T06:06:53.554Z,67.36
2016-12-22T06:07:53.567Z,67.36
2016-12-22T06:08:53.569Z,66.69
2016-12-22T06:09:53.575Z,66.6
2016-12-22T06:10:53.586Z,66.79
2016-12-22T06:11:53.597Z,66.79
2016-12-22T06:12:53.608Z,66.88
2016-12-22T06:13:53.935Z,67.26
2016-12-22T06:14:53.945Z,67.07
2016-12-22T06:15:53.641Z,66.63
2016-12-22T06:16:53.964Z,66.44
2016-12-22T06:17:53.693Z,66.35
2016-12-22T06:18:53.676Z,66.25
2016-12-22T06:19:53.683Z,66.63
2016-12-22T06:20:54.053Z,66.82
2016-12-22T06:21:54.017Z,66.44
2016-12-22T06:22:54.030Z,66.73
2016-12-22T06:23:53.730Z,66.92
2016-12-22T06:24:54.050Z,67.01
2016-12-22T06:25:54.059Z,67.2
2016-12-22T06:26:53.755Z,66.63
2016-12-22T06:27:53.768Z,66.25
2016-12-22T06:28:53.777Z,66.73
2016-12-22T06:29:54.102Z,66.44
2016-12-22T06:30:53.799Z,66.44
2016-12-22T06:31:53.807Z,65.78
2016-12-22T06:32:53.820Z,65.59
2016-12-22T06:33:53.831Z,65.4
2016-12-22T06:34:54.155Z,65.5
2016-12-22T06:35:53.853Z,65.5
2016-12-22T06:36:53.863Z,65.69
2016-12-22T06:37:54.188Z,65.75
2016-12-22T06:38:54.197Z,66.22
2016-12-22T06:39:53.895Z,65.97
2016-12-22T06:40:53.903Z,65.97
2016-12-22T06:41:53.914Z,66.06
2016-12-22T06:42:53.926Z,65.5
2016-12-22T06:43:53.935Z,65.69
2016-12-22T06:44:54.262Z,66.13
2016-12-22T06:45:53.957Z,66.5
2016-12-22T06:46:53.970Z,66.22
2016-12-22T06:47:54.296Z,66.31
2016-12-22T06:48:53.988Z,66.5
2016-12-22T06:49:54.319Z,66.06
2016-12-22T06:50:54.010Z,65.78
2016-12-22T06:51:54.021Z,65.97
2016-12-22T06:52:54.361Z,65.69
2016-12-22T06:53:54.042Z,66.13
2016-12-22T06:54:54.053Z,66.22
2016-12-22T06:55:54.395Z,66.06
2016-12-22T06:56:54.076Z,65.88
2016-12-22T06:57:54.399Z,65.4
2016-12-22T06:58:54.411Z,66.03
2016-12-22T06:59:54.426Z,66.13
2016-12-22T07:00:54.432Z,66.79
2016-12-22T07:01:54.127Z,66.69
2016-12-22T07:02:54.454Z,66.5
2016-12-22T07:03:54.149Z,66.25
2016-12-22T07:04:54.158Z,66.44
2016-12-22T07:05:54.485Z,65.88
2016-12-22T07:06:54.180Z,65.97
2016-12-22T07:07:54.537Z,66.25
2016-12-22T07:08:54.204Z,65.88
2016-12-22T07:09:54.210Z,65.88
2016-12-22T07:10:54.238Z,66.53
2016-12-22T07:11:54.249Z,66.79
2016-12-22T07:12:54.561Z,66.35
2016-12-22T07:13:54.255Z,66.53
2016-12-22T07:14:54.266Z,66.44
2016-12-22T07:15:54.276Z,66.53
2016-12-22T07:16:54.287Z,66.53
2016-12-22T07:17:54.305Z,66.35
2016-12-22T07:18:54.318Z,66.92
2016-12-22T07:19:54.634Z,67.3
2016-12-22T07:20:54.329Z,67.3
2016-12-22T07:21:54.655Z,67.3
2016-12-22T07:22:54.354Z,66.82
2016-12-22T07:23:54.362Z,66.92
2016-12-22T07:24:54.372Z,67.39
2016-12-22T07:25:54.382Z,67.39
2016-12-22T07:26:54.395Z,66.63
2016-12-22T07:27:54.746Z,67.11
2016-12-22T07:28:54.416Z,67.39
2016-12-22T07:29:54.740Z,67.3
2016-12-22T07:30:54.436Z,67.2
2016-12-22T07:31:54.766Z,67.58
2016-12-22T07:32:54.461Z,68.15
2016-12-22T07:33:54.472Z,67.86
2016-12-22T07:34:54.480Z,67.96
2016-12-22T07:35:54.489Z,67.96
2016-12-22T07:36:54.816Z,67.77
2016-12-22T07:37:54.512Z,67.77
2016-12-22T07:38:54.837Z,67.96
2016-12-22T07:39:54.536Z,67.3
2016-12-22T07:40:54.859Z,67.2
2016-12-22T07:41:54.554Z,67.68
2016-12-22T07:42:54.880Z,68.24
2016-12-22T07:43:54.575Z,68.62
2016-12-22T07:44:54.586Z,68.33
2016-12-22T07:45:54.699Z,68.81
2016-12-22T07:46:54.925Z,68.81
2016-12-22T07:47:54.934Z,68.24
2016-12-22T07:48:54.942Z,68.43
2016-12-22T07:49:54.640Z,68.05
2016-12-22T07:50:54.967Z,68.24
2016-12-22T07:51:54.977Z,69.38
2016-12-22T07:52:54.690Z,69.57
2016-12-22T07:53:54.701Z,69.19
2016-12-22T07:54:54.695Z,69.09
2016-12-22T07:55:55.028Z,69.09
2016-12-22T07:56:54.714Z,69.19
2016-12-22T07:57:54.725Z,68.62
2016-12-22T07:58:55.052Z,68.24
2016-12-22T07:59:55.071Z,68.24
2016-12-22T08:00:54.841Z,68.43
2016-12-22T08:01:54.767Z,68.33
2016-12-22T08:02:55.097Z,68.33
2016-12-22T08:03:54.791Z,67.68
2016-12-22T08:04:55.115Z,67.58
2016-12-22T08:05:54.811Z,67.49
2016-12-22T08:06:54.864Z,68.05
2016-12-22T08:07:55.148Z,68.15
2016-12-22T08:08:55.158Z,68.43
2016-12-22T08:09:54.854Z,68.33
2016-12-22T08:10:54.864Z,67.86
2016-12-22T08:11:54.875Z,68.05
2016-12-22T08:12:55.202Z,68.43
2016-12-22T08:13:55.215Z,68.05
2016-12-22T08:14:54.917Z,68.33
2016-12-22T08:15:54.919Z,67.86
2016-12-22T08:16:54.932Z,68.27
2016-12-22T08:17:54.941Z,68.15
2016-12-22T08:18:54.949Z,68.15
2016-12-22T08:19:54.963Z,68.43
2016-12-22T08:20:54.974Z,67.77
2016-12-22T08:21:55.301Z,68.33
2016-12-22T08:22:54.994Z,68.24
2016-12-22T08:23:55.010Z,69.09
2016-12-22T08:24:55.015Z,69.28
2016-12-22T08:25:55.029Z,69.28
2016-12-22T08:26:55.353Z,68.33
2016-12-22T08:27:55.051Z,68.33
2016-12-22T08:28:55.058Z,68.24
2016-12-22T08:29:55.392Z,67.8
2016-12-22T08:30:55.081Z,67.61
2016-12-22T08:31:55.091Z,66.76
2016-12-22T08:32:55.419Z,67.43
2016-12-22T08:33:55.429Z,66.95
2016-12-22T08:34:55.124Z,67.39
2016-12-22T08:35:55.139Z,67.71
2016-12-22T08:36:55.463Z,67.52
2016-12-22T08:37:55.474Z,67.43
2016-12-22T08:38:55.170Z,66.76
2016-12-22T08:39:55.179Z,66.67
2016-12-22T08:40:55.191Z,66.28
2016-12-22T08:41:55.519Z,66.57
2016-12-22T08:42:55.549Z,66.19
2016-12-22T08:43:55.537Z,66.57
2016-12-22T08:44:55.550Z,66.09
2016-12-22T08:45:55.247Z,66
2016-12-22T08:46:55.575Z,66
2016-12-22T08:47:55.268Z,65.63
2016-12-22T08:48:55.280Z,65.72
2016-12-22T08:49:55.616Z,65.81
2016-12-22T08:50:55.311Z,65.53
2016-12-22T08:51:55.634Z,65.34
2016-12-22T08:52:55.324Z,65.72
2016-12-22T08:53:55.651Z,65.91
2016-12-22T08:54:55.665Z,65.15
2016-12-22T08:55:55.359Z,66.09
2016-12-22T08:56:55.377Z,65.91
2016-12-22T08:57:55.696Z,66.67
2016-12-22T08:58:55.394Z,66.67
2016-12-22T08:59:55.407Z,66.92
2016-12-22T09:00:55.733Z,67.58
2016-12-22T09:01:55.425Z,67.61
2016-12-22T09:02:55.755Z,67.2
2016-12-22T09:03:55.458Z,67.43
2016-12-22T09:04:55.462Z,66.86
2016-12-22T09:05:55.476Z,66.38
2016-12-22T09:06:55.485Z,66.28
2016-12-22T09:07:55.495Z,65.53
2016-12-22T09:08:55.507Z,65.91
2016-12-22T09:09:55.835Z,66.67
2016-12-22T09:10:55.535Z,66.09
2016-12-22T09:11:55.858Z,65.91
2016-12-22T09:12:55.555Z,65.81
2016-12-22T09:13:55.572Z,66.28
2016-12-22T09:14:55.579Z,65.72
2016-12-22T09:15:55.906Z,64.77
2016-12-22T09:16:55.600Z,65.25
2016-12-22T09:19:55.614Z,64.68
2016-12-22T09:22:22.111Z,64.61
2016-12-22T09:23:22.119Z,65.53
2016-12-22T09:24:22.462Z,65.84
2016-12-22T09:25:22.139Z,64.04
2016-12-22T09:26:22.153Z,63.57
2016-12-22T09:27:22.166Z,63.39
2016-12-22T09:28:22.174Z,63.57
2016-12-22T09:29:22.190Z,63.51
2016-12-22T09:30:22.519Z,62.75
2016-12-22T09:31:22.216Z,61.8
2016-12-22T09:32:22.540Z,61.33
2016-12-22T09:33:22.243Z,61.36
2016-12-22T09:34:22.568Z,59.37
2016-12-22T09:35:22.592Z,58.36
2016-12-22T09:36:22.594Z,56.46
2016-12-22T09:37:22.292Z,55.04
2016-12-22T09:38:22.304Z,55.13
2016-12-22T09:39:22.318Z,55.91
2016-12-22T09:40:22.649Z,55.44
2016-12-22T09:41:22.344Z,54.02
2016-12-22T09:42:22.680Z,54.46
2016-12-22T09:43:22.375Z,55.79
2016-12-22T09:44:22.385Z,56.55
2016-12-22T09:45:22.403Z,56.27
2016-12-22T09:46:22.412Z,56.46
2016-12-22T09:47:22.745Z,56.58
2016-12-22T09:48:22.761Z,55.54
2016-12-22T09:49:22.772Z,55.44
2016-12-22T09:50:22.677Z,54.87
2016-12-22T09:51:22.488Z,54.97
2016-12-22T09:52:22.816Z,55.47
2016-12-22T09:53:22.516Z,54.71
2016-12-22T09:54:22.529Z,54.61
2016-12-22T09:55:22.858Z,54.33
2016-12-22T09:56:22.874Z,54.14
2016-12-22T09:57:22.899Z,53.85
2016-12-22T09:58:22.593Z,54.14
2016-12-22T09:59:22.604Z,53.57
2016-12-22T10:00:22.944Z,53.69
2016-12-22T10:01:22.635Z,53.78
2016-12-22T10:02:22.967Z,52.64
2016-12-22T10:03:22.981Z,52.55
2016-12-22T10:04:23.013Z,52.36
2016-12-22T10:05:23.011Z,51.12
2016-12-22T10:06:23.027Z,51.6
2016-12-22T10:07:23.043Z,51.51
2016-12-22T10:08:23.059Z,51.31
2016-12-22T10:09:23.075Z,51.51
2016-12-22T10:10:23.087Z,51.51
2016-12-22T10:11:22.788Z,50.37
2016-12-22T10:12:23.119Z,50.37
2016-12-22T10:13:23.134Z,50.27
2016-12-22T10:14:22.835Z,50.27
2016-12-22T10:15:22.851Z,50.84
2016-12-22T10:16:22.867Z,51.76
2016-12-22T10:17:23.201Z,50.81
2016-12-22T10:18:22.898Z,50.91
2016-12-22T10:19:23.236Z,51.1
2016-12-22T10:20:22.930Z,51.29
2016-12-22T10:21:23.263Z,51.31
2016-12-22T10:22:23.295Z,51.51
2016-12-22T10:23:23.296Z,50.74
2016-12-22T10:24:23.308Z,50.29
2016-12-22T10:25:23.011Z,50.48
2016-12-22T10:26:23.360Z,49.44
2016-12-22T10:27:23.056Z,50.01
2016-12-22T10:28:23.374Z,50.2
2016-12-22T10:29:23.391Z,48.77
2016-12-22T10:30:23.409Z,48.49
2016-12-22T10:31:23.106Z,48.85
2016-12-22T10:32:23.124Z,49.22
2016-12-22T10:33:23.456Z,48.68
2016-12-22T10:34:23.154Z,48.77
2016-12-22T10:35:23.488Z,48.58
2016-12-22T10:36:23.186Z,48.37
2016-12-22T10:37:23.524Z,48.66
2016-12-22T10:38:23.220Z,50.29
2016-12-22T10:39:23.237Z,49.91
2016-12-22T10:40:23.570Z,48.39
2016-12-22T10:41:23.587Z,47.92
2016-12-22T10:42:23.284Z,49.04
2016-12-22T10:43:23.351Z,48.75
2016-12-22T10:44:23.645Z,49.04
2016-12-22T10:45:23.650Z,50.01
2016-12-22T10:46:23.667Z,49.54
2016-12-22T10:47:23.365Z,48.96
2016-12-22T10:48:23.396Z,47.85
2016-12-22T10:49:23.717Z,48.11
2016-12-22T10:50:23.729Z,49.15
2016-12-22T10:51:23.436Z,49.91
2016-12-22T10:52:23.448Z,50.29
2016-12-22T10:53:23.466Z,50.01
2016-12-22T10:54:23.797Z,49.06
2016-12-22T10:55:23.593Z,49.15
2016-12-22T10:56:23.829Z,48.21
2016-12-22T10:57:23.530Z,48.49
2016-12-22T10:58:23.546Z,48.49
2016-12-22T10:59:23.884Z,49.54
2016-12-22T11:00:23.924Z,50.27
2016-12-22T11:01:23.594Z,49.7
2016-12-22T11:02:23.926Z,50.1
2016-12-22T11:03:23.945Z,49.91
2016-12-22T11:04:23.642Z,49.06
2016-12-22T11:05:24.179Z,48.77
2016-12-22T11:06:23.677Z,50.01
2016-12-22T11:07:24.008Z,50.58
2016-12-22T11:08:24.026Z,51.15
2016-12-22T11:09:23.724Z,50.39
2016-12-22T11:10:24.058Z,50.1
2016-12-22T11:11:23.756Z,50.13
2016-12-22T11:12:24.092Z,49.46
2016-12-22T11:13:24.199Z,49.18
2016-12-22T11:14:24.122Z,49.46
2016-12-22T11:15:23.823Z,49.27
2016-12-22T11:16:23.839Z,48.73
2016-12-22T11:17:24.175Z,48.63
2016-12-22T11:18:23.872Z,47.87
2016-12-22T11:19:24.206Z,47.87
2016-12-22T11:20:24.221Z,47.97
2016-12-22T11:21:23.922Z,47.02
2016-12-22T11:22:24.257Z,47.49
2016-12-22T11:23:24.272Z,47.87
2016-12-22T11:24:24.290Z,47.87
2016-12-22T11:25:24.303Z,47.3
2016-12-22T11:26:24.323Z,47.78
2016-12-22T11:27:24.021Z,47.97
2016-12-22T11:28:24.036Z,47.49
2016-12-22T11:29:24.053Z,46.44
2016-12-22T11:30:24.387Z,47.97
2016-12-22T11:31:24.402Z,48.42
2016-12-22T11:32:24.104Z,49.18
2016-12-22T11:33:24.437Z,48.54
2016-12-22T11:34:24.452Z,47.97
2016-12-22T11:35:24.471Z,48.54
2016-12-22T11:36:24.502Z,48.06
2016-12-22T11:37:24.503Z,48.06
2016-12-22T11:38:24.520Z,47.78
2016-12-22T11:39:24.219Z,48.06
2016-12-22T11:40:24.279Z,49.3
2016-12-22T11:41:24.263Z,49.2
2016-12-22T11:42:24.585Z,49.01
2016-12-22T11:43:24.604Z,48.82
2016-12-22T11:44:24.305Z,48.73
2016-12-22T11:45:24.638Z,49.11
2016-12-22T11:46:24.337Z,48.47
2016-12-22T11:47:24.694Z,47.71
2016-12-22T11:48:24.388Z,48.06
2016-12-22T11:49:24.389Z,48.73
2016-12-22T11:50:24.721Z,50.13
2016-12-22T11:51:24.736Z,50.32
2016-12-22T11:52:24.441Z,50.32
2016-12-22T11:53:24.455Z,50.06
2016-12-22T11:54:24.474Z,50.06
2016-12-22T11:55:24.805Z,49.3
2016-12-22T11:56:24.820Z,49.11
2016-12-22T11:57:24.522Z,48.44
2016-12-22T11:58:24.542Z,47.87
2016-12-22T11:59:24.558Z,48.08
2016-12-22T12:00:24.888Z,47.8
2016-12-22T12:01:24.903Z,48.27
2016-12-22T12:02:24.606Z,48.56
2016-12-22T12:03:24.623Z,47.8
2016-12-22T12:04:24.978Z,48.08
2016-12-22T12:05:24.977Z,48.3
2016-12-22T12:06:24.673Z,48.39
2016-12-22T12:07:24.698Z,47.54
2016-12-22T12:08:25.026Z,48.02
2016-12-22T12:09:24.727Z,47.63
2016-12-22T12:10:24.741Z,47.92
2016-12-22T12:11:25.075Z,47.34
2016-12-22T12:12:24.777Z,47.18
2016-12-22T12:13:25.110Z,47.08
2016-12-22T12:14:24.813Z,46.42
2016-12-22T12:15:25.146Z,46.04
2016-12-22T12:16:25.163Z,46.32
2016-12-22T12:17:25.203Z,46.78
2016-12-22T12:18:25.198Z,46.89
2016-12-22T12:19:24.901Z,46.13
2016-12-22T12:20:24.918Z,46.11
2016-12-22T12:21:24.937Z,46.68
2016-12-22T12:22:24.954Z,47.82
2016-12-22T12:23:24.971Z,47.71
2016-12-22T12:24:25.328Z,47.99
2016-12-22T12:25:25.021Z,48.44
2016-12-22T12:26:25.052Z,49.2
2016-12-22T12:27:25.042Z,50.35
2016-12-22T12:28:25.057Z,50.54
2016-12-22T12:29:25.387Z,49.77
2016-12-22T12:30:25.411Z,48.47
2016-12-22T12:31:25.110Z,48.27
2016-12-22T12:32:25.128Z,47.8
2016-12-22T12:33:25.464Z,48.75
2016-12-22T12:34:25.477Z,48.63
2016-12-22T12:35:25.496Z,49.01
2016-12-22T12:36:25.516Z,48.82
2016-12-22T12:37:25.533Z,49.68
2016-12-22T12:38:25.554Z,50.15
2016-12-22T12:39:25.566Z,50.63
2016-12-22T12:40:25.581Z,50.82
2016-12-22T12:41:25.604Z,51.78
2016-12-22T12:42:25.623Z,50.82
2016-12-22T12:43:25.637Z,50.66
2016-12-22T12:44:25.339Z,49.99
2016-12-22T12:45:25.673Z,48.58
2016-12-22T12:46:25.690Z,47.92
2016-12-22T12:47:25.391Z,48.21
2016-12-22T12:48:25.727Z,47.63
2016-12-22T12:49:25.742Z,47.82
2016-12-22T12:50:25.445Z,48.37
2016-12-22T12:51:25.778Z,49.23
2016-12-22T12:52:25.484Z,48.94
2016-12-22T12:53:25.496Z,48.75
2016-12-22T12:54:25.832Z,48.47
2016-12-22T12:55:25.544Z,48.75
2016-12-22T12:56:25.868Z,49.16
2016-12-22T12:57:25.570Z,48.58
2016-12-22T12:58:25.904Z,47.94
2016-12-22T12:59:25.605Z,47.75
2016-12-22T13:00:25.625Z,46.99